createdAt,value
2019-02-20T00:01:42.575Z,99524.72
2019-02-20T00:04:15.629Z,99536.37
2019-02-20T00:06:48.655Z,99531.66
2019-02-20T00:09:20.381Z,99535.52
2019-02-20T00:11:52.237Z,99534.63
2019-02-20T00:14:24.145Z,99534.28
2019-02-20T00:16:56.038Z,99527.97
2019-02-20T00:19:28.405Z,99530.58
2019-02-20T00:22:00.332Z,99532.77
2019-02-20T00:24:32.078Z,99531.48
2019-02-20T00:27:03.676Z,99536.97
2019-02-20T00:29:35.588Z,99533.89
2019-02-20T00:32:07.283Z,99534.66
2019-02-20T00:34:39.111Z,99539.69
2019-02-20T00:37:10.873Z,99540.80
2019-02-20T00:39:42.443Z,99540.62
2019-02-20T00:42:14.123Z,99533.12
2019-02-20T00:45:22.516Z,99538.05
2019-02-20T00:48:18.220Z,99543.16
2019-02-20T00:50:51.497Z,99545.27
2019-02-20T00:53:27.784Z,99540.62
2019-02-20T00:56:02.228Z,99534.56
2019-02-20T00:58:34.131Z,99533.56
2019-02-20T01:01:05.898Z,99535.14
2019-02-20T01:03:37.773Z,99533.25
2019-02-20T01:06:12.268Z,99534.68
2019-02-20T01:08:44.383Z,99532.77
2019-02-20T01:11:15.927Z,99534.72
2019-02-20T01:13:47.633Z,99533.99
2019-02-20T01:16:19.201Z,99537.71
2019-02-20T01:18:50.897Z,99541.31
2019-02-20T01:21:22.685Z,99532.03
2019-02-20T01:23:54.538Z,99532.36
2019-02-20T01:26:26.181Z,99535.52
2019-02-20T01:28:57.921Z,99534.94
2019-02-20T01:31:29.834Z,99534.94
2019-02-20T01:34:01.670Z,99535.69
2019-02-20T01:36:34.191Z,99531.10
2019-02-20T01:39:06.769Z,99534.55
2019-02-20T01:41:38.408Z,99534.88
2019-02-20T01:44:10.000Z,99529.23
2019-02-20T01:46:41.634Z,99535.14
2019-02-20T01:49:14.322Z,99533.37
2019-02-20T01:51:46.186Z,99538.11
2019-02-20T01:54:17.776Z,99535.03
2019-02-20T01:56:49.379Z,99530.69
2019-02-20T01:59:21.140Z,99531.92
2019-02-20T02:01:52.675Z,99530.06
2019-02-20T02:04:24.384Z,99533.33
2019-02-20T02:06:55.979Z,99537.09
2019-02-20T02:09:27.601Z,99538.63
2019-02-20T02:11:59.220Z,99533.36
2019-02-20T02:14:30.851Z,99536.70
2019-02-20T02:17:02.380Z,99527.19
2019-02-20T02:19:34.297Z,99523.48
2019-02-20T02:22:06.392Z,99528.10
2019-02-20T02:24:37.856Z,99526.21
2019-02-20T02:27:10.435Z,99518.73
2019-02-20T02:29:42.030Z,99520.02
2019-02-20T02:32:14.495Z,99518.98
2019-02-20T02:34:46.071Z,99521.83
2019-02-20T02:37:17.781Z,99520.86
2019-02-20T02:39:49.422Z,99515.31
2019-02-20T02:42:21.030Z,99510.09
2019-02-20T02:44:52.702Z,99507.74
2019-02-20T02:47:24.506Z,99511.31
2019-02-20T02:49:56.507Z,99512.34
2019-02-20T02:52:28.139Z,99508.89
2019-02-20T02:54:59.874Z,99511.92
2019-02-20T02:57:31.712Z,99511.05
2019-02-20T03:00:03.481Z,99513.95
2019-02-20T03:02:35.397Z,99518.13
2019-02-20T03:05:07.292Z,99512.17
2019-02-20T03:07:39.105Z,99509.69
2019-02-20T03:10:10.775Z,99511.85
2019-02-20T03:12:42.628Z,99513.56
2019-02-20T03:15:14.305Z,99508.52
2019-02-20T03:17:45.801Z,99510.20
2019-02-20T03:20:17.584Z,99505.84
2019-02-20T03:22:49.263Z,99506.37
2019-02-20T03:25:20.987Z,99507.11
2019-02-20T03:27:53.316Z,99506.95
2019-02-20T03:30:25.089Z,99513.77
2019-02-20T03:32:56.770Z,99507.69
2019-02-20T03:35:28.532Z,99508.13
2019-02-20T03:38:00.250Z,99508.93
2019-02-20T03:40:32.050Z,99509.36
2019-02-20T03:43:04.267Z,99514.41
2019-02-20T03:45:36.029Z,99507.27
2019-02-20T03:48:07.692Z,99506.94
2019-02-20T03:50:39.356Z,99505.11
2019-02-20T03:53:11.101Z,99500.70
2019-02-20T03:55:42.620Z,99508.55
2019-02-20T03:58:14.299Z,99506.45
2019-02-20T04:00:45.862Z,99504.69
2019-02-20T04:03:17.678Z,99499.47
2019-02-20T04:05:49.407Z,99507.38
2019-02-20T04:08:21.081Z,99504.59
2019-02-20T04:10:52.679Z,99504.59
2019-02-20T04:13:24.386Z,99504.77
2019-02-20T04:15:56.063Z,99506.45
2019-02-20T04:18:27.739Z,99507.73
2019-02-20T04:20:59.580Z,99512.83
2019-02-20T04:23:31.243Z,99509.34
2019-02-20T04:26:02.694Z,99511.12
2019-02-20T04:28:41.413Z,99503.80
2019-02-20T04:31:12.999Z,99512.27
2019-02-20T04:33:44.727Z,99507.86
2019-02-20T04:36:16.924Z,99515.17
2019-02-20T04:38:48.551Z,99517.64
2019-02-20T04:41:20.520Z,99514.89
2019-02-20T04:43:52.119Z,99516.11
2019-02-20T04:46:23.771Z,99509.07
2019-02-20T04:49:01.646Z,99510.29
2019-02-20T04:51:33.310Z,99502.91
2019-02-20T04:54:12.958Z,99502.12
2019-02-20T04:56:40.819Z,99500.89
2019-02-20T04:59:12.513Z,99505.84
2019-02-20T05:01:44.132Z,99506.03
2019-02-20T05:04:16.243Z,99499.59
2019-02-20T05:06:47.941Z,99500.88
2019-02-20T05:09:19.632Z,99500.39
2019-02-20T05:11:51.652Z,99501.24
2019-02-20T05:14:23.553Z,99501.99
2019-02-20T05:16:55.332Z,99500.19
2019-02-20T05:19:27.435Z,99501.33
2019-02-20T05:21:59.082Z,99505.48
2019-02-20T05:24:50.053Z,99500.71
2019-02-20T05:27:22.041Z,99507.09
2019-02-20T05:29:54.083Z,99504.41
2019-02-20T05:32:25.913Z,99507.77
2019-02-20T05:34:57.588Z,99505.57
2019-02-20T05:37:29.197Z,99506.30
2019-02-20T05:40:01.507Z,99506.30
2019-02-20T05:42:33.115Z,99502.81
2019-02-20T05:45:04.766Z,99512.34
2019-02-20T05:47:36.379Z,99509.27
2019-02-20T05:50:08.275Z,99512.28
2019-02-20T05:52:39.996Z,99515.33
2019-02-20T05:55:12.362Z,99513.58
2019-02-20T05:57:44.349Z,99521.30
2019-02-20T06:00:16.273Z,99520.86
2019-02-20T06:02:48.773Z,99528.63
2019-02-20T06:05:20.788Z,99528.61
2019-02-20T06:07:53.372Z,99521.19
2019-02-20T06:10:25.294Z,99534.02
2019-02-20T06:12:57.351Z,99527.03
2019-02-20T06:15:29.061Z,99540.73
2019-02-20T06:18:01.378Z,99546.27
2019-02-20T06:20:33.009Z,99547.14
2019-02-20T06:23:04.914Z,99552.31
2019-02-20T06:25:36.536Z,99556.03
2019-02-20T06:28:08.451Z,99555.25
2019-02-20T06:30:40.295Z,99563.78
2019-02-20T06:33:12.074Z,99557.70
2019-02-20T06:35:44.064Z,99564.23
2019-02-20T06:38:15.920Z,99560.65
2019-02-20T06:40:47.680Z,99572.16
2019-02-20T06:43:19.887Z,99570.92
2019-02-20T06:45:51.878Z,99574.18
2019-02-20T06:48:23.548Z,99579.83
2019-02-20T06:50:55.421Z,99579.39
2019-02-20T06:53:30.028Z,99584.47
2019-02-20T06:56:01.977Z,99589.06
2019-02-20T06:58:33.902Z,99594.09
2019-02-20T07:01:05.760Z,99590.28
2019-02-20T07:03:37.509Z,99594.89
2019-02-20T07:07:05.238Z,99597.50
2019-02-20T07:11:03.918Z,99600.84
2019-02-20T07:14:18.573Z,99600.08
2019-02-20T07:17:34.202Z,99609.56
2019-02-20T07:21:14.441Z,99610.34
2019-02-20T07:24:26.363Z,99613.31
2019-02-20T07:28:01.459Z,99605.95
2019-02-20T07:30:33.201Z,99608.16
2019-02-20T07:33:04.972Z,99610.27
2019-02-20T07:35:45.864Z,99619.84
2019-02-20T07:38:17.980Z,99618.52
2019-02-20T07:40:49.840Z,99619.92
2019-02-20T07:43:21.664Z,99626.02
2019-02-20T07:45:57.185Z,99617.20
2019-02-20T07:48:31.624Z,99619.95
2019-02-20T07:51:09.582Z,99618.86
2019-02-20T07:53:45.333Z,99623.22
2019-02-20T07:56:18.635Z,99619.81
2019-02-20T07:58:53.619Z,99623.38
2019-02-20T08:01:29.110Z,99625.47
2019-02-20T08:04:04.285Z,99629.41
2019-02-20T08:06:42.268Z,99636.55
2019-02-20T08:09:18.041Z,99632.36
2019-02-20T08:11:53.605Z,99627.44
2019-02-20T08:14:28.077Z,99628.45
2019-02-20T08:17:04.531Z,99629.02
2019-02-20T08:19:40.816Z,99625.77
2019-02-20T08:22:15.275Z,99635.05
2019-02-20T08:24:51.100Z,99628.67
2019-02-20T08:27:29.603Z,99639.47
2019-02-20T08:30:07.040Z,99640.28
2019-02-20T08:32:46.310Z,99639.97
2019-02-20T08:35:21.545Z,99640.56
2019-02-20T08:37:59.625Z,99637.47
2019-02-20T08:40:35.664Z,99641.34
2019-02-20T08:43:12.005Z,99638.39
2019-02-20T08:45:47.304Z,99627.07
2019-02-20T08:48:26.559Z,99639.47
2019-02-20T08:51:02.565Z,99636.30
2019-02-20T08:53:36.807Z,99634.81
2019-02-20T08:56:13.745Z,99643.45
2019-02-20T08:58:49.971Z,99643.47
2019-02-20T09:01:24.430Z,99641.61
2019-02-20T09:03:58.090Z,99637.28
2019-02-20T09:06:31.372Z,99637.77
2019-02-20T09:09:06.472Z,99637.81
2019-02-20T09:11:42.419Z,99638.31
2019-02-20T09:14:18.111Z,99645.30
2019-02-20T09:16:54.658Z,99644.50
2019-02-20T09:19:29.339Z,99639.52
2019-02-20T09:22:19.444Z,99641.75
2019-02-20T09:24:53.478Z,99643.73
2019-02-20T09:27:29.080Z,99633.33
2019-02-20T09:30:03.675Z,99633.11
2019-02-20T09:32:35.874Z,99640.48
2019-02-20T09:35:07.696Z,99635.01
2019-02-20T09:37:45.289Z,99628.51
2019-02-20T09:40:18.926Z,99637.68
2019-02-20T09:42:50.962Z,99640.39
2019-02-20T09:45:22.796Z,99633.68
2019-02-20T09:47:54.979Z,99637.61
2019-02-20T09:50:27.407Z,99635.42
2019-02-20T09:52:59.405Z,99640.17
2019-02-20T09:55:31.496Z,99637.61
2019-02-20T09:58:03.097Z,99635.17
2019-02-20T10:00:38.704Z,99636.80
2019-02-20T10:03:11.059Z,99635.22
2019-02-20T10:05:43.441Z,99631.75
2019-02-20T10:08:15.179Z,99631.82
2019-02-20T10:10:47.238Z,99629.58
2019-02-20T10:13:19.245Z,99633.72
2019-02-20T10:15:52.378Z,99634.25
2019-02-20T10:18:23.925Z,99631.66
2019-02-20T10:20:55.795Z,99640.93
2019-02-20T10:23:27.467Z,99633.75
2019-02-20T10:26:01.152Z,99624.33
2019-02-20T10:28:40.117Z,99625.05
2019-02-20T10:31:11.823Z,99627.60
2019-02-20T10:33:43.642Z,99627.08
2019-02-20T10:36:15.742Z,99622.00
2019-02-20T10:38:47.769Z,99624.28
2019-02-20T10:41:19.735Z,99627.55
2019-02-20T10:43:52.618Z,99628.95
2019-02-20T10:46:25.012Z,99624.47
2019-02-20T10:48:56.779Z,99620.01
2019-02-20T10:51:28.877Z,99617.87
2019-02-20T10:54:00.893Z,99615.45
2019-02-20T10:56:32.965Z,99619.84
2019-02-20T10:59:05.051Z,99618.50
2019-02-20T11:01:37.547Z,99607.46
2019-02-20T11:04:09.529Z,99604.78
2019-02-20T11:06:41.707Z,99602.17
2019-02-20T11:09:16.384Z,99598.66
2019-02-20T11:11:47.967Z,99608.34
2019-02-20T11:14:19.908Z,99609.92
2019-02-20T11:16:51.703Z,99605.43
2019-02-20T11:19:23.574Z,99594.56
2019-02-20T11:21:55.653Z,99595.30
2019-02-20T11:24:27.431Z,99590.48
2019-02-20T11:26:59.468Z,99591.73
2019-02-20T11:29:31.534Z,99591.16
2019-02-20T11:32:03.217Z,99595.70
2019-02-20T11:34:36.154Z,99587.25
2019-02-20T11:37:07.851Z,99583.55
2019-02-20T11:39:44.218Z,99577.81
2019-02-20T11:42:16.027Z,99579.89
2019-02-20T11:44:47.991Z,99582.87
2019-02-20T11:47:20.833Z,99580.33
2019-02-20T11:49:53.377Z,99568.97
2019-02-20T11:52:25.311Z,99562.58
2019-02-20T11:54:57.251Z,99567.73
2019-02-20T11:57:29.010Z,99570.00
2019-02-20T12:00:00.924Z,99557.09
2019-02-20T12:02:37.477Z,99552.88
2019-02-20T12:05:06.338Z,99548.92
2019-02-20T12:07:38.602Z,99550.03
2019-02-20T12:10:12.798Z,99548.39
2019-02-20T12:12:44.991Z,99544.31
2019-02-20T12:15:16.670Z,99546.33
2019-02-20T12:17:48.875Z,99538.83
2019-02-20T12:20:20.643Z,99534.31
2019-02-20T12:22:52.686Z,99536.71
2019-02-20T12:25:24.949Z,99528.92
2019-02-20T12:27:57.025Z,99535.63
2019-02-20T12:30:30.805Z,99535.98
2019-02-20T12:33:03.772Z,99529.36
2019-02-20T12:35:35.483Z,99530.22
2019-02-20T12:38:07.368Z,99530.48
2019-02-20T12:40:40.683Z,99528.31
2019-02-20T12:43:12.396Z,99523.45
2019-02-20T12:45:44.277Z,99526.79
2019-02-20T12:48:16.929Z,99520.23
2019-02-20T12:50:49.041Z,99514.95
2019-02-20T12:53:21.691Z,99508.25
2019-02-20T12:56:00.797Z,99506.98
2019-02-20T12:58:32.498Z,99505.64
2019-02-20T13:01:11.069Z,99509.34
2019-02-20T13:03:43.017Z,99508.83
2019-02-20T13:06:14.855Z,99503.55
2019-02-20T13:08:46.977Z,99505.63
2019-02-20T13:11:18.962Z,99512.80
2019-02-20T13:13:51.902Z,99506.03
2019-02-20T13:16:24.248Z,99507.48
2019-02-20T13:18:57.282Z,99501.08
2019-02-20T13:21:29.342Z,99499.59
2019-02-20T13:24:03.160Z,99500.50
2019-02-20T13:26:35.055Z,99506.19
2019-02-20T13:29:08.002Z,99494.72
2019-02-20T13:31:40.022Z,99501.81
2019-02-20T13:34:12.420Z,99498.27
2019-02-20T13:36:44.477Z,99506.61
2019-02-20T13:39:16.424Z,99505.13
2019-02-20T13:41:48.250Z,99502.46
2019-02-20T13:44:20.040Z,99501.77
2019-02-20T13:46:51.967Z,99490.66
2019-02-20T13:49:24.183Z,99496.69
2019-02-20T13:51:56.410Z,99494.95
2019-02-20T13:54:28.272Z,99489.94
2019-02-20T13:57:04.925Z,99484.67
2019-02-20T13:59:34.443Z,99489.18
2019-02-20T14:02:08.551Z,99487.48
2019-02-20T14:04:40.880Z,99484.24
2019-02-20T14:07:13.065Z,99485.33
2019-02-20T14:09:45.421Z,99486.46
2019-02-20T14:12:17.655Z,99493.78
2019-02-20T14:14:49.570Z,99490.94
2019-02-20T14:17:26.739Z,99491.19
2019-02-20T14:19:56.227Z,99488.85
2019-02-20T14:22:29.111Z,99490.13
2019-02-20T14:25:02.685Z,99495.58
2019-02-20T14:27:35.128Z,99486.19
2019-02-20T14:30:07.122Z,99487.78
2019-02-20T14:32:39.345Z,99492.45
2019-02-20T14:35:11.446Z,99482.20
2019-02-20T14:37:43.541Z,99482.97
2019-02-20T14:40:15.433Z,99485.09
2019-02-20T14:42:47.997Z,99487.33
2019-02-20T14:45:19.753Z,99488.29
2019-02-20T14:47:51.573Z,99491.09
2019-02-20T14:50:23.682Z,99488.47
2019-02-20T14:52:55.659Z,99487.47
2019-02-20T14:55:27.991Z,99488.69
2019-02-20T14:58:00.188Z,99490.44
2019-02-20T15:00:32.335Z,99491.25
2019-02-20T15:03:04.500Z,99485.23
2019-02-20T15:05:36.330Z,99489.47
2019-02-20T15:08:08.408Z,99483.20
2019-02-20T15:10:40.169Z,99486.31
2019-02-20T15:13:12.030Z,99482.55
2019-02-20T15:15:44.201Z,99488.45
2019-02-20T15:18:16.198Z,99475.44
2019-02-20T15:20:48.828Z,99475.20
2019-02-20T15:23:29.150Z,99477.75
2019-02-20T15:26:00.961Z,99473.70
2019-02-20T15:28:33.510Z,99480.06
2019-02-20T15:31:05.796Z,99479.38
2019-02-20T15:33:37.951Z,99479.25
2019-02-20T15:36:10.251Z,99473.88
2019-02-20T15:38:42.767Z,99475.16
2019-02-20T15:41:28.206Z,99472.02
2019-02-20T15:44:00.574Z,99468.00
2019-02-20T15:46:32.666Z,99471.53
2019-02-20T15:49:04.929Z,99470.01
2019-02-20T15:51:36.801Z,99472.80
2019-02-20T15:54:08.743Z,99470.84
2019-02-20T15:56:41.145Z,99472.11
2019-02-20T15:59:13.282Z,99464.23
2019-02-20T16:01:45.693Z,99464.32
2019-02-20T16:04:18.101Z,99466.84
2019-02-20T16:06:50.674Z,99470.25
2019-02-20T16:09:22.431Z,99473.48
2019-02-20T16:11:54.211Z,99471.20
2019-02-20T16:14:25.973Z,99472.66
2019-02-20T16:16:58.417Z,99474.90
2019-02-20T16:19:30.873Z,99474.70
2019-02-20T16:22:03.162Z,99467.42
2019-02-20T16:24:35.013Z,99480.67
2019-02-20T16:27:07.432Z,99473.49
2019-02-20T16:29:39.193Z,99479.21
2019-02-20T16:32:11.116Z,99476.17
2019-02-20T16:34:42.994Z,99478.97
2019-02-20T16:37:14.795Z,99476.36
2019-02-20T16:39:46.620Z,99483.20
2019-02-20T16:42:18.602Z,99488.36
2019-02-20T16:44:51.016Z,99485.52
2019-02-20T16:47:23.177Z,99477.67
2019-02-20T16:49:55.017Z,99484.52
2019-02-20T16:52:28.106Z,99486.36
2019-02-20T16:55:00.559Z,99493.48
2019-02-20T16:57:33.152Z,99485.88
2019-02-20T17:00:06.151Z,99493.48
2019-02-20T17:02:38.632Z,99496.23
2019-02-20T17:05:14.245Z,99493.50
2019-02-20T17:07:45.380Z,99495.88
2019-02-20T17:10:16.924Z,99497.56
2019-02-20T17:12:49.247Z,99507.31
2019-02-20T17:15:23.150Z,99508.79
2019-02-20T17:17:55.310Z,99511.86
2019-02-20T17:20:27.183Z,99519.77
2019-02-20T17:22:58.995Z,99513.56
2019-02-20T17:25:31.200Z,99524.70
2019-02-20T17:28:06.042Z,99526.22
2019-02-20T17:30:38.206Z,99526.88
2019-02-20T17:33:10.017Z,99525.37
2019-02-20T17:35:42.477Z,99531.84
2019-02-20T17:38:14.437Z,99537.75
2019-02-20T17:40:46.141Z,99533.67
2019-02-20T17:43:18.558Z,99533.06
2019-02-20T17:45:50.599Z,99535.89
2019-02-20T17:48:24.351Z,99542.36
2019-02-20T17:50:58.085Z,99545.08
2019-02-20T17:53:30.996Z,99539.59
2019-02-20T17:56:03.894Z,99545.09
2019-02-20T17:58:37.612Z,99545.38
2019-02-20T18:01:16.252Z,99553.94
2019-02-20T18:03:48.645Z,99553.80
2019-02-20T18:06:20.592Z,99554.02
2019-02-20T18:08:52.662Z,99560.14
2019-02-20T18:11:24.350Z,99567.73
2019-02-20T18:13:56.489Z,99566.16
2019-02-20T18:16:28.305Z,99573.08
2019-02-20T18:19:00.450Z,99571.38
2019-02-20T18:21:32.657Z,99570.60
2019-02-20T18:24:04.396Z,99571.82
2019-02-20T18:26:36.335Z,99570.73
2019-02-20T18:29:08.464Z,99571.48
2019-02-20T18:31:40.260Z,99575.31
2019-02-20T18:34:12.808Z,99584.05
2019-02-20T18:36:44.956Z,99591.61
2019-02-20T18:39:16.882Z,99592.18
2019-02-20T18:41:48.799Z,99596.51
2019-02-20T18:44:20.623Z,99594.39
2019-02-20T18:46:52.246Z,99592.78
2019-02-20T18:49:24.186Z,99591.89
2019-02-20T18:51:56.152Z,99593.16
2019-02-20T18:54:28.645Z,99597.75
2019-02-20T18:57:00.712Z,99597.66
2019-02-20T18:59:32.611Z,99598.55
2019-02-20T19:02:04.830Z,99596.66
2019-02-20T19:04:36.513Z,99601.12
2019-02-20T19:07:15.876Z,99600.23
2019-02-20T19:09:50.885Z,99603.94
2019-02-20T19:13:28.342Z,99605.97
2019-02-20T19:17:10.022Z,99610.46
2019-02-20T19:21:05.922Z,99607.87
2019-02-20T19:25:01.650Z,99609.79
2019-02-20T19:28:03.198Z,99615.08
2019-02-20T19:31:28.978Z,99615.92
2019-02-20T19:35:16.884Z,99613.71
2019-02-20T19:38:27.513Z,99620.28
2019-02-20T19:42:05.544Z,99623.52
2019-02-20T19:45:48.964Z,99619.36
2019-02-20T19:48:49.914Z,99626.89
2019-02-20T19:52:24.646Z,99629.66
2019-02-20T19:55:20.638Z,99637.66
2019-02-20T19:58:54.610Z,99640.70
2019-02-20T20:02:45.931Z,99637.45
2019-02-20T20:05:58.861Z,99640.07
2019-02-20T20:09:16.533Z,99641.09
2019-02-20T20:12:51.636Z,99651.61
2019-02-20T20:16:08.141Z,99649.59
2019-02-20T20:19:39.964Z,99656.31
2019-02-20T20:23:14.599Z,99653.09
2019-02-20T20:26:31.172Z,99660.25
2019-02-20T20:29:58.747Z,99663.41
2019-02-20T20:33:23.691Z,99658.61
2019-02-20T20:36:34.238Z,99661.78
2019-02-20T20:40:03.831Z,99666.91
2019-02-20T20:43:28.200Z,99669.34
2019-02-20T20:47:02.605Z,99674.41
2019-02-20T20:50:00.549Z,99668.56
2019-02-20T20:53:51.564Z,99679.07
2019-02-20T20:57:11.425Z,99685.84
2019-02-20T21:00:32.921Z,99693.14
2019-02-20T21:03:12.848Z,99688.68
2019-02-20T21:06:49.634Z,99683.33
2019-02-20T21:10:47.174Z,99685.05
2019-02-20T21:14:24.303Z,99687.13
2019-02-20T21:17:50.401Z,99690.70
2019-02-20T21:21:23.001Z,99686.25
2019-02-20T21:24:45.198Z,99686.16
2019-02-20T21:28:07.844Z,99692.13
2019-02-20T21:31:33.888Z,99699.06
2019-02-20T21:34:40.689Z,99702.20
2019-02-20T21:38:37.406Z,99694.66
2019-02-20T21:41:43.504Z,99694.72
2019-02-20T21:45:19.629Z,99701.06
2019-02-20T21:49:06.418Z,99702.59
2019-02-20T21:52:40.655Z,99700.64
2019-02-20T21:55:53.574Z,99703.55
2019-02-20T21:58:57.195Z,99702.91
2019-02-20T22:02:01.427Z,99712.09
2019-02-20T22:05:10.970Z,99711.28
2019-02-20T22:08:34.150Z,99714.83
2019-02-20T22:11:53.594Z,99709.82
2019-02-20T22:15:03.308Z,99706.31
2019-02-20T22:18:08.797Z,99714.30
2019-02-20T22:21:47.150Z,99712.69
2019-02-20T22:25:09.929Z,99716.65
2019-02-20T22:28:22.462Z,99710.30
2019-02-20T22:31:36.880Z,99716.88
2019-02-20T22:34:44.475Z,99720.28
2019-02-20T22:38:22.648Z,99721.95
2019-02-20T22:41:32.935Z,99721.14
2019-02-20T22:45:33.395Z,99721.58
2019-02-20T22:49:01.102Z,99721.90
2019-02-20T22:52:18.584Z,99731.06
2019-02-20T22:55:54.830Z,99727.77
2019-02-20T22:59:26.245Z,99728.26
2019-02-20T23:02:41.581Z,99736.94
2019-02-20T23:06:20.074Z,99739.75
2019-02-20T23:09:26.804Z,99743.75
2019-02-20T23:13:03.610Z,99742.20
2019-02-20T23:15:35.704Z,99745.77
2019-02-20T23:18:07.694Z,99749.77
2019-02-20T23:20:39.506Z,99748.52
2019-02-20T23:23:11.213Z,99762.73
2019-02-20T23:25:42.946Z,99756.38
2019-02-20T23:28:14.776Z,99754.31
2019-02-20T23:30:46.666Z,99754.27
2019-02-20T23:33:18.700Z,99753.84
2019-02-20T23:35:50.856Z,99751.34
2019-02-20T23:38:23.379Z,99758.13
2019-02-20T23:40:57.402Z,99752.98
2019-02-20T23:43:29.144Z,99747.00
2019-02-20T23:46:00.995Z,99756.41
2019-02-20T23:48:33.016Z,99750.91
2019-02-20T23:51:04.940Z,99754.12
2019-02-20T23:53:36.668Z,99758.45
2019-02-20T23:56:08.304Z,99758.97
2019-02-20T23:58:42.496Z,99758.66
